Tuesday, September 18, 2018, 11:58 PM EDT
Back to Local

KFME, Fort Meade / Tipton

Location: Laurel, MD, United States Lat: 39.083
Local Time: 11:58 PM EDT ( 3:58 GMT) Lon: -76.767
Time Zone: US/Eastern Elev: 150 ft

Show me the last for .
Show Decoded

2018-09-18 23:27 METAR KFME 190327Z AUTO 30003KT 7SM CLR 20/19 A2986 RMK AO1 =
2018-09-18 23:06 METAR KFME 190306Z AUTO 31004KT 10SM CLR 20/19 A2986 RMK AO1 =
2018-09-18 22:48 METAR KFME 190248Z AUTO 31003KT 10SM CLR 20/20 A2987 RMK AO1 =
2018-09-18 22:27 METAR KFME 190227Z AUTO 00000KT 10SM CLR 20/20 A2986 RMK AO1 =
2018-09-18 22:06 METAR KFME 190206Z AUTO 00000KT 7SM CLR 20/20 A2986 RMK AO1 =
2018-09-18 21:48 METAR KFME 190148Z AUTO 00000KT 7SM CLR 20/20 A2985 RMK AO1 =
2018-09-18 21:27 METAR KFME 190127Z AUTO 00000KT 10SM CLR 20/20 A2985 RMK AO1 =
2018-09-18 21:06 METAR KFME 190106Z AUTO 00000KT 10SM CLR 21/20 A2985 RMK AO1 =
2018-09-18 20:48 METAR KFME 190048Z AUTO 00000KT 10SM CLR 21/20 A2985 RMK AO1 =
2018-09-18 20:27 METAR KFME 190027Z AUTO 00000KT 10SM CLR 21/20 A2984 RMK AO1 =
2018-09-18 20:06 METAR KFME 190006Z AUTO 00000KT 10SM CLR 21/20 A2984 RMK AO1 =
2018-09-18 19:48 METAR KFME 182348Z AUTO 00000KT 10SM CLR 22/21 A2984 RMK AO1 =
2018-09-18 19:27 METAR KFME 182327Z AUTO 00000KT 10SM CLR 22/21 A2983 RMK AO1 =
2018-09-18 19:06 METAR KFME 182306Z AUTO 33003KT 10SM CLR 22/21 A2982 RMK AO1 =
2018-09-18 18:48 METAR KFME 182248Z AUTO 00000KT 10SM CLR 23/21 A2982 RMK AO1 =
2018-09-18 18:27 METAR KFME 182227Z AUTO 00000KT 10SM CLR 25/21 A2981 RMK AO1 =
2018-09-18 18:06 METAR KFME 182206Z AUTO 00000KT 10SM SCT041 24/22 A2980 RMK AO1 =
2018-09-18 17:48 METAR KFME 182148Z AUTO 00000KT 10SM CLR 25/21 A2980 RMK AO1 =
2018-09-18 17:27 METAR KFME 182127Z AUTO 36004KT 10SM SCT100 26/21 A2980 RMK AO1 =
2018-09-18 17:06 METAR KFME 182106Z AUTO 01003KT 10SM BKN100 BKN120 26/21 A2980 RMK AO1 =
2018-09-18 16:48 METAR KFME 182048Z AUTO 00000KT 10SM OVC100 25/21 A2980 RMK AO1 =
2018-09-18 16:27 METAR KFME 182027Z AUTO 00000KT 10SM OVC080 24/21 A2980 RMK AO1 =
2018-09-18 16:06 METAR KFME 182006Z AUTO 00000KT 10SM SCT032 SCT055 BKN095 24/21 A2979 RMK AO1 =
2018-09-18 15:48 METAR KFME 181948Z AUTO 00000KT 7SM SCT019 SCT027 BKN037 23/22 A2979 RMK AO1 =
2018-09-18 15:27 METAR KFME 181927Z AUTO 34006KT 7SM SCT019 SCT024 OVC039 23/22 A2979 RMK AO1 =
2018-09-18 15:06 METAR KFME 181906Z AUTO 33007KT 10SM SCT016 BKN021 OVC041 23/22 A2979 RMK AO1 =
2018-09-18 14:48 METAR KFME 181848Z AUTO 32007KT 10SM SCT019 SCT029 OVC043 23/22 A2979 RMK AO1 =
2018-09-18 14:27 METAR KFME 181827Z AUTO 00000KT 7SM SCT014 BKN037 OVC047 23/23 A2979 RMK AO1 =
2018-09-18 14:06 METAR KFME 181806Z AUTO 00000KT 5SM SCT006 SCT016 OVC035 23/23 A2979 RMK AO1 =
2018-09-18 13:48 METAR KFME 181748Z AUTO 00000KT 3/4SM BKN006 BKN015 OVC024 23/22 A2979 RMK AO1
                 VIS 1/4V4 =
2018-09-18 13:27 METAR KFME 181727Z AUTO 31005KT 10SM SCT014 BKN038 OVC070 25/24 A2978 RMK AO1 =
2018-09-18 13:06 METAR KFME 181706Z AUTO 00000KT 5SM BKN014 BKN023 OVC070 25/24 A2978 RMK AO1 =
2018-09-18 12:48 METAR KFME 181648Z AUTO 00000KT 10SM SCT010 BKN013 OVC060 25/24 A2979 RMK AO1 =
2018-09-18 12:27 METAR KFME 181627Z AUTO 23004KT 7SM SCT009 BKN029 OVC065 25/25 A2979 RMK AO1 =
2018-09-18 12:06 METAR KFME 181606Z AUTO 26003KT 5SM SCT006 BKN015 OVC065 24/23 A2980 RMK AO1 =
2018-09-18 11:48 METAR KFME 181548Z AUTO 23003KT 4SM SCT006 BKN015 OVC022 24/23 A2980 RMK AO1 =
2018-09-18 11:06 METAR KFME 181506Z AUTO 23003KT 2 1/2SM SCT008 BKN018 OVC023 23/23 A2980 RMK AO1
                 =
2018-09-18 10:48 METAR KFME 181448Z AUTO 22004KT 4SM SCT013 OVC018 23/23 A2981 RMK AO1 =
2018-09-18 10:06 METAR KFME 181406Z AUTO 22003KT 2SM SCT006 OVC013 23/23 A2980 RMK AO1 =
2018-09-18 09:48 METAR KFME 181348Z AUTO 00000KT 4SM SCT006 OVC013 23/23 A2980 RMK AO1 =
2018-09-18 09:06 METAR KFME 181306Z AUTO 00000KT 1 3/4SM OVC016 23/23 A2980 RMK AO1 =
2018-09-18 08:48 METAR KFME 181248Z AUTO 20003KT 5SM OVC016 23/23 A2980 RMK AO1 =
2018-09-18 08:27 METAR KFME 181227Z AUTO 00000KT 3SM OVC016 23/22 A2981 RMK AO1 =
2018-09-18 08:06 METAR KFME 181206Z AUTO 00000KT 3SM BKN016 BKN023 OVC032 23/22 A2981 RMK AO1 =
2018-09-18 07:48 METAR KFME 181148Z AUTO 00000KT 3SM SCT016 BKN029 OVC034 23/22 A2982 RMK AO1 =
2018-09-18 07:27 METAR KFME 181127Z AUTO 00000KT 2SM BKN016 OVC023 22/22 A2981 RMK AO1 =
2018-09-18 07:06 METAR KFME 181106Z AUTO 00000KT 1 3/4SM BKN014 BKN020 OVC026 22/22 A2982 RMK AO1
                 =
2018-09-18 06:48 METAR KFME 181048Z AUTO 00000KT 2SM SCT015 OVC024 22/22 A2982 RMK AO1 =
2018-09-18 06:27 METAR KFME 181027Z AUTO 00000KT 4SM SCT013 BKN020 OVC100 22/22 A2982 RMK AO1 =
2018-09-18 06:06 METAR KFME 181006Z AUTO 00000KT 5SM BKN014 OVC020 22/22 A2982 RMK AO1 =
2018-09-18 05:48 METAR KFME 180948Z AUTO 00000KT 4SM OVC012 22/22 A2982 RMK AO1 =
2018-09-18 05:27 METAR KFME 180927Z AUTO 00000KT 2SM BKN012 OVC018 22/22 A2982 RMK AO1 =
2018-09-18 05:06 METAR KFME 180906Z AUTO 25003KT 1 1/2SM SCT019 OVC030 22/22 A2982 RMK AO1 =
2018-09-18 04:48 METAR KFME 180848Z AUTO 00000KT 5SM SCT011 BKN028 OVC033 22/22 A2982 RMK AO1 =
2018-09-18 04:27 METAR KFME 180827Z AUTO 00000KT 4SM OVC014 22/22 A2983 RMK AO1 =
2018-09-18 04:06 METAR KFME 180806Z AUTO 00000KT 4SM BKN017 BKN025 OVC090 22/22 A2983 RMK AO1 =
2018-09-18 03:48 METAR KFME 180748Z AUTO 23003KT 1 1/4SM SCT008 BKN019 OVC075 22/22 A2984 RMK AO1
                 =
2018-09-18 03:27 METAR KFME 180727Z AUTO 20005KT 1SM BKN013 OVC033 22/21 A2984 RMK AO1 =
2018-09-18 03:06 METAR KFME 180706Z AUTO 00000KT 7SM SCT021 SCT050 OVC110 22/21 A2984 RMK AO1 =
2018-09-18 02:48 METAR KFME 180648Z AUTO 18003KT 7SM SCT019 SCT050 BKN110 22/21 A2985 RMK AO1 =
2018-09-18 02:27 METAR KFME 180627Z AUTO 18004KT 4SM SCT007 BKN015 BKN041 22/21 A2985 RMK AO1 =
2018-09-18 02:06 METAR KFME 180606Z AUTO 27004KT 7SM BKN010 OVC013 22/22 A2986 RMK AO1 =
2018-09-18 01:48 METAR KFME 180548Z AUTO 29003KT 4SM SCT006 OVC013 22/22 A2985 RMK AO1 =
2018-09-18 01:27 METAR KFME 180527Z AUTO 25004KT 2SM SCT006 SCT012 OVC017 22/22 A2986 RMK AO1 VIS
                 1/2V5 =
2018-09-18 01:06 METAR KFME 180506Z AUTO 24009G15KT 3/4SM BKN007 OVC012 22/22 A2987 RMK AO1 =
2018-09-18 00:48 METAR KFME 180448Z AUTO 28005KT 2SM SCT009 OVC014 24/23 A2987 RMK AO1 =
2018-09-18 00:27 METAR KFME 180427Z AUTO 18003KT 5SM OVC016 24/23 A2987 RMK AO1 =
2018-09-18 00:06 METAR KFME 180406Z AUTO 17004KT 10SM SCT011 OVC018 24/23 A2988 RMK AO1 =

Support USWX by starting your Amazon purchase here.